sensor_id;sensor_type;location;lat;lon;timestamp;P1;durP1;ratioP1;P2;durP2;ratioP2
27744;SDS011;61387;48.112;8.616;2022-09-09T00:01:20;2.20;;;1.20;;
27744;SDS011;61387;48.112;8.616;2022-09-09T00:04:22;5.03;;;1.07;;
27744;SDS011;61387;48.112;8.616;2022-09-09T00:06:53;3.00;;;1.00;;
27744;SDS011;61387;48.112;8.616;2022-09-09T00:09:21;3.50;;;1.20;;
27744;SDS011;61387;48.112;8.616;2022-09-09T00:17:09;6.80;;;1.57;;
27744;SDS011;61387;48.112;8.616;2022-09-09T00:19:45;4.97;;;1.23;;
27744;SDS011;61387;48.112;8.616;2022-09-09T00:22:22;2.70;;;1.00;;
27744;SDS011;61387;48.112;8.616;2022-09-09T00:24:52;2.97;;;0.93;;
27744;SDS011;61387;48.112;8.616;2022-09-09T00:30:23;6.13;;;1.47;;
27744;SDS011;61387;48.112;8.616;2022-09-09T00:32:53;8.10;;;1.40;;
27744;SDS011;61387;48.112;8.616;2022-09-09T00:35:29;8.90;;;1.87;;
27744;SDS011;61387;48.112;8.616;2022-09-09T00:38:19;3.90;;;1.20;;
27744;SDS011;61387;48.112;8.616;2022-09-09T00:40:52;2.50;;;1.47;;
27744;SDS011;61387;48.112;8.616;2022-09-09T00:54:31;3.30;;;1.10;;
27744;SDS011;61387;48.112;8.616;2022-09-09T00:57:17;3.27;;;0.93;;
27744;SDS011;61387;48.112;8.616;2022-09-09T01:00:15;2.77;;;1.10;;
27744;SDS011;61387;48.112;8.616;2022-09-09T01:03:02;5.07;;;1.27;;
27744;SDS011;61387;48.112;8.616;2022-09-09T01:11:03;2.40;;;1.20;;
27744;SDS011;61387;48.112;8.616;2022-09-09T01:13:30;1.67;;;0.97;;
27744;SDS011;61387;48.112;8.616;2022-09-09T01:15:59;5.33;;;1.27;;
27744;SDS011;61387;48.112;8.616;2022-09-09T01:18:49;4.63;;;1.20;;
27744;SDS011;61387;48.112;8.616;2022-09-09T01:24:08;7.00;;;1.33;;
27744;SDS011;61387;48.112;8.616;2022-09-09T01:26:51;4.80;;;1.47;;
27744;SDS011;61387;48.112;8.616;2022-09-09T01:29:20;5.37;;;1.37;;
27744;SDS011;61387;48.112;8.616;2022-09-09T01:34:20;2.93;;;1.37;;
27744;SDS011;61387;48.112;8.616;2022-09-09T01:39:21;4.40;;;1.63;;
27744;SDS011;61387;48.112;8.616;2022-09-09T01:41:47;3.50;;;1.57;;
27744;SDS011;61387;48.112;8.616;2022-09-09T01:44:13;3.43;;;1.50;;
27744;SDS011;61387;48.112;8.616;2022-09-09T01:46:39;4.33;;;1.40;;
27744;SDS011;61387;48.112;8.616;2022-09-09T01:49:06;3.17;;;1.50;;
27744;SDS011;61387;48.112;8.616;2022-09-09T01:51:32;5.60;;;1.67;;
27744;SDS011;61387;48.112;8.616;2022-09-09T01:53:59;2.97;;;1.43;;
27744;SDS011;61387;48.112;8.616;2022-09-09T02:02:36;4.23;;;1.27;;
27744;SDS011;61387;48.112;8.616;2022-09-09T02:05:37;2.03;;;1.17;;
27744;SDS011;61387;48.112;8.616;2022-09-09T02:08:11;3.93;;;1.30;;
27744;SDS011;61387;48.112;8.616;2022-09-09T02:11:11;2.27;;;1.10;;
27744;SDS011;61387;48.112;8.616;2022-09-09T02:13:39;3.77;;;1.50;;
27744;SDS011;61387;48.112;8.616;2022-09-09T02:16:26;3.90;;;1.40;;
27744;SDS011;61387;48.112;8.616;2022-09-09T02:19:02;3.30;;;1.40;;
27744;SDS011;61387;48.112;8.616;2022-09-09T02:21:37;5.60;;;1.77;;
27744;SDS011;61387;48.112;8.616;2022-09-09T02:24:06;3.93;;;1.60;;
27744;SDS011;61387;48.112;8.616;2022-09-09T02:26:35;2.57;;;0.97;;
27744;SDS011;61387;48.112;8.616;2022-09-09T02:29:05;3.00;;;1.33;;
27744;SDS011;61387;48.112;8.616;2022-09-09T02:31:36;3.83;;;1.57;;
27744;SDS011;61387;48.112;8.616;2022-09-09T02:34:04;4.30;;;1.20;;
27744;SDS011;61387;48.112;8.616;2022-09-09T02:36:33;3.97;;;1.70;;
27744;SDS011;61387;48.112;8.616;2022-09-09T02:39:00;3.60;;;1.63;;
27744;SDS011;61387;48.112;8.616;2022-09-09T02:41:30;4.23;;;1.30;;
27744;SDS011;61387;48.112;8.616;2022-09-09T02:43:59;4.07;;;1.83;;
27744;SDS011;61387;48.112;8.616;2022-09-09T02:46:36;7.57;;;1.77;;
27744;SDS011;61387;48.112;8.616;2022-09-09T02:49:09;4.63;;;1.70;;
27744;SDS011;61387;48.112;8.616;2022-09-09T02:54:17;4.90;;;1.57;;
27744;SDS011;61387;48.112;8.616;2022-09-09T02:56:55;3.57;;;1.97;;
27744;SDS011;61387;48.112;8.616;2022-09-09T02:59:31;3.27;;;1.70;;
27744;SDS011;61387;48.112;8.616;2022-09-09T03:01:57;3.13;;;1.57;;
27744;SDS011;61387;48.112;8.616;2022-09-09T03:04:23;5.40;;;1.77;;
27744;SDS011;61387;48.112;8.616;2022-09-09T03:06:49;7.60;;;2.13;;
27744;SDS011;61387;48.112;8.616;2022-09-09T03:09:15;6.33;;;1.93;;
27744;SDS011;61387;48.112;8.616;2022-09-09T03:11:41;5.03;;;2.17;;
27744;SDS011;61387;48.112;8.616;2022-09-09T03:14:07;3.77;;;2.00;;
27744;SDS011;61387;48.112;8.616;2022-09-09T03:16:36;4.67;;;2.20;;
27744;SDS011;61387;48.112;8.616;2022-09-09T03:19:02;5.23;;;2.00;;
27744;SDS011;61387;48.112;8.616;2022-09-09T03:21:28;5.77;;;2.17;;
27744;SDS011;61387;48.112;8.616;2022-09-09T03:23:54;6.00;;;2.20;;
27744;SDS011;61387;48.112;8.616;2022-09-09T03:26:20;5.27;;;2.40;;
27744;SDS011;61387;48.112;8.616;2022-09-09T03:28:46;6.53;;;2.20;;
27744;SDS011;61387;48.112;8.616;2022-09-09T03:31:12;4.13;;;2.33;;
27744;SDS011;61387;48.112;8.616;2022-09-09T03:33:39;4.57;;;2.23;;
27744;SDS011;61387;48.112;8.616;2022-09-09T03:36:08;3.90;;;2.00;;
27744;SDS011;61387;48.112;8.616;2022-09-09T03:38:35;4.37;;;1.97;;
27744;SDS011;61387;48.112;8.616;2022-09-09T03:41:01;3.90;;;2.50;;
27744;SDS011;61387;48.112;8.616;2022-09-09T03:43:28;5.80;;;2.23;;
27744;SDS011;61387;48.112;8.616;2022-09-09T03:45:54;6.00;;;2.57;;
27744;SDS011;61387;48.112;8.616;2022-09-09T03:48:23;6.30;;;2.67;;
27744;SDS011;61387;48.112;8.616;2022-09-09T03:50:51;5.77;;;2.23;;
27744;SDS011;61387;48.112;8.616;2022-09-09T03:53:19;3.93;;;2.00;;
27744;SDS011;61387;48.112;8.616;2022-09-09T03:55:46;3.77;;;1.73;;
27744;SDS011;61387;48.112;8.616;2022-09-09T03:58:14;4.87;;;2.13;;
27744;SDS011;61387;48.112;8.616;2022-09-09T04:00:40;6.27;;;2.43;;
27744;SDS011;61387;48.112;8.616;2022-09-09T04:03:09;3.63;;;2.07;;
27744;SDS011;61387;48.112;8.616;2022-09-09T04:05:35;5.90;;;2.60;;
27744;SDS011;61387;48.112;8.616;2022-09-09T04:08:05;5.50;;;2.60;;
27744;SDS011;61387;48.112;8.616;2022-09-09T04:10:31;9.83;;;2.63;;
27744;SDS011;61387;48.112;8.616;2022-09-09T04:12:57;4.33;;;2.00;;
27744;SDS011;61387;48.112;8.616;2022-09-09T04:15:24;6.70;;;2.27;;
27744;SDS011;61387;48.112;8.616;2022-09-09T04:17:50;3.83;;;2.30;;
27744;SDS011;61387;48.112;8.616;2022-09-09T04:20:16;6.10;;;2.60;;
27744;SDS011;61387;48.112;8.616;2022-09-09T04:22:42;6.70;;;2.20;;
27744;SDS011;61387;48.112;8.616;2022-09-09T04:25:08;4.80;;;2.80;;
27744;SDS011;61387;48.112;8.616;2022-09-09T04:27:34;6.57;;;3.00;;
27744;SDS011;61387;48.112;8.616;2022-09-09T04:30:00;8.27;;;3.43;;
27744;SDS011;61387;48.112;8.616;2022-09-09T04:32:26;7.27;;;3.03;;
27744;SDS011;61387;48.112;8.616;2022-09-09T04:34:52;8.23;;;4.03;;
27744;SDS011;61387;48.112;8.616;2022-09-09T04:37:18;7.20;;;3.63;;
27744;SDS011;61387;48.112;8.616;2022-09-09T04:39:44;11.23;;;3.93;;
27744;SDS011;61387;48.112;8.616;2022-09-09T04:42:10;9.10;;;4.43;;
27744;SDS011;61387;48.112;8.616;2022-09-09T04:44:36;10.37;;;4.27;;
27744;SDS011;61387;48.112;8.616;2022-09-09T04:47:02;6.83;;;3.30;;
27744;SDS011;61387;48.112;8.616;2022-09-09T04:49:28;6.17;;;3.00;;
27744;SDS011;61387;48.112;8.616;2022-09-09T04:51:56;5.83;;;2.90;;
27744;SDS011;61387;48.112;8.616;2022-09-09T04:54:22;8.47;;;3.03;;
27744;SDS011;61387;48.112;8.616;2022-09-09T04:56:49;9.13;;;2.80;;
27744;SDS011;61387;48.112;8.616;2022-09-09T04:59:15;9.57;;;3.50;;
27744;SDS011;61387;48.112;8.616;2022-09-09T05:01:41;9.10;;;2.83;;
27744;SDS011;61387;48.112;8.616;2022-09-09T05:04:07;4.43;;;2.87;;
27744;SDS011;61387;48.112;8.616;2022-09-09T05:06:33;5.63;;;3.00;;
27744;SDS011;61387;48.112;8.616;2022-09-09T05:09:01;8.67;;;2.97;;
27744;SDS011;61387;48.112;8.616;2022-09-09T05:11:28;6.30;;;2.53;;
27744;SDS011;61387;48.112;8.616;2022-09-09T05:13:55;7.40;;;2.97;;
27744;SDS011;61387;48.112;8.616;2022-09-09T05:16:21;7.50;;;3.10;;
27744;SDS011;61387;48.112;8.616;2022-09-09T05:18:47;8.23;;;2.93;;
27744;SDS011;61387;48.112;8.616;2022-09-09T05:21:17;8.00;;;3.50;;
27744;SDS011;61387;48.112;8.616;2022-09-09T05:23:44;5.63;;;2.93;;
27744;SDS011;61387;48.112;8.616;2022-09-09T05:26:15;6.07;;;2.87;;
27744;SDS011;61387;48.112;8.616;2022-09-09T05:28:41;6.23;;;2.70;;
27744;SDS011;61387;48.112;8.616;2022-09-09T05:31:08;6.00;;;2.77;;
27744;SDS011;61387;48.112;8.616;2022-09-09T05:33:37;5.20;;;2.77;;
27744;SDS011;61387;48.112;8.616;2022-09-09T05:36:09;5.97;;;2.90;;
27744;SDS011;61387;48.112;8.616;2022-09-09T05:38:38;6.97;;;3.23;;
27744;SDS011;61387;48.112;8.616;2022-09-09T05:41:04;9.73;;;3.10;;
27744;SDS011;61387;48.112;8.616;2022-09-09T05:43:30;5.63;;;3.00;;
27744;SDS011;61387;48.112;8.616;2022-09-09T05:46:01;8.93;;;3.20;;
27744;SDS011;61387;48.112;8.616;2022-09-09T05:48:29;8.73;;;3.60;;
27744;SDS011;61387;48.112;8.616;2022-09-09T05:50:56;16.53;;;10.87;;
27744;SDS011;61387;48.112;8.616;2022-09-09T05:53:22;6.10;;;3.30;;
27744;SDS011;61387;48.112;8.616;2022-09-09T05:55:48;6.43;;;2.73;;
27744;SDS011;61387;48.112;8.616;2022-09-09T05:58:15;5.53;;;2.80;;
27744;SDS011;61387;48.112;8.616;2022-09-09T06:00:41;4.53;;;2.67;;
27744;SDS011;61387;48.112;8.616;2022-09-09T06:03:10;4.90;;;2.33;;
27744;SDS011;61387;48.112;8.616;2022-09-09T06:05:36;5.30;;;3.20;;
27744;SDS011;61387;48.112;8.616;2022-09-09T06:08:02;6.37;;;2.53;;
27744;SDS011;61387;48.112;8.616;2022-09-09T06:10:28;6.07;;;2.57;;
27744;SDS011;61387;48.112;8.616;2022-09-09T06:12:54;4.03;;;2.40;;
27744;SDS011;61387;48.112;8.616;2022-09-09T06:15:20;4.23;;;2.37;;
27744;SDS011;61387;48.112;8.616;2022-09-09T06:17:46;7.77;;;2.70;;
27744;SDS011;61387;48.112;8.616;2022-09-09T06:20:14;8.70;;;2.70;;
27744;SDS011;61387;48.112;8.616;2022-09-09T06:22:40;6.33;;;2.67;;
27744;SDS011;61387;48.112;8.616;2022-09-09T06:25:07;5.47;;;2.20;;
27744;SDS011;61387;48.112;8.616;2022-09-09T06:27:33;8.27;;;2.70;;
27744;SDS011;61387;48.112;8.616;2022-09-09T06:29:59;8.10;;;2.43;;
27744;SDS011;61387;48.112;8.616;2022-09-09T06:32:25;6.43;;;2.73;;
27744;SDS011;61387;48.112;8.616;2022-09-09T06:34:51;5.00;;;1.90;;
27744;SDS011;61387;48.112;8.616;2022-09-09T06:37:17;6.60;;;1.73;;
27744;SDS011;61387;48.112;8.616;2022-09-09T06:39:43;3.57;;;2.03;;
27744;SDS011;61387;48.112;8.616;2022-09-09T06:42:09;5.43;;;2.20;;
27744;SDS011;61387;48.112;8.616;2022-09-09T06:44:35;2.50;;;1.90;;
27744;SDS011;61387;48.112;8.616;2022-09-09T06:47:01;3.37;;;1.67;;
27744;SDS011;61387;48.112;8.616;2022-09-09T06:49:27;5.83;;;1.87;;
27744;SDS011;61387;48.112;8.616;2022-09-09T06:51:53;6.27;;;2.47;;
27744;SDS011;61387;48.112;8.616;2022-09-09T06:54:19;3.77;;;2.00;;
27744;SDS011;61387;48.112;8.616;2022-09-09T06:56:46;5.73;;;2.10;;
27744;SDS011;61387;48.112;8.616;2022-09-09T06:59:14;4.87;;;1.97;;
27744;SDS011;61387;48.112;8.616;2022-09-09T07:01:41;4.43;;;2.00;;
27744;SDS011;61387;48.112;8.616;2022-09-09T07:04:09;5.50;;;2.07;;
27744;SDS011;61387;48.112;8.616;2022-09-09T07:06:40;7.43;;;2.50;;
27744;SDS011;61387;48.112;8.616;2022-09-09T07:09:10;5.10;;;2.20;;
27744;SDS011;61387;48.112;8.616;2022-09-09T07:11:44;7.10;;;2.30;;
27744;SDS011;61387;48.112;8.616;2022-09-09T07:14:11;6.10;;;2.50;;
27744;SDS011;61387;48.112;8.616;2022-09-09T07:16:41;6.43;;;2.47;;
27744;SDS011;61387;48.112;8.616;2022-09-09T07:19:08;6.13;;;2.60;;
27744;SDS011;61387;48.112;8.616;2022-09-09T07:21:34;6.90;;;2.60;;
27744;SDS011;61387;48.112;8.616;2022-09-09T07:24:00;7.97;;;2.83;;
27744;SDS011;61387;48.112;8.616;2022-09-09T07:26:27;7.00;;;2.80;;
27744;SDS011;61387;48.112;8.616;2022-09-09T07:28:54;3.63;;;2.10;;
27744;SDS011;61387;48.112;8.616;2022-09-09T07:33:50;7.67;;;2.10;;
27744;SDS011;61387;48.112;8.616;2022-09-09T07:36:17;5.50;;;2.03;;
27744;SDS011;61387;48.112;8.616;2022-09-09T07:38:49;5.10;;;2.30;;
27744;SDS011;61387;48.112;8.616;2022-09-09T07:41:18;4.83;;;1.90;;
27744;SDS011;61387;48.112;8.616;2022-09-09T07:43:51;6.37;;;1.93;;
27744;SDS011;61387;48.112;8.616;2022-09-09T07:46:19;3.67;;;2.20;;
27744;SDS011;61387;48.112;8.616;2022-09-09T07:48:46;5.93;;;1.90;;
27744;SDS011;61387;48.112;8.616;2022-09-09T07:51:17;5.87;;;2.10;;
27744;SDS011;61387;48.112;8.616;2022-09-09T07:53:50;6.50;;;2.73;;
27744;SDS011;61387;48.112;8.616;2022-09-09T07:56:18;3.37;;;1.93;;
27744;SDS011;61387;48.112;8.616;2022-09-09T07:58:47;3.50;;;2.03;;
27744;SDS011;61387;48.112;8.616;2022-09-09T08:01:15;2.93;;;1.47;;
27744;SDS011;61387;48.112;8.616;2022-09-09T08:03:54;3.40;;;1.90;;
27744;SDS011;61387;48.112;8.616;2022-09-09T08:06:24;5.13;;;1.90;;
27744;SDS011;61387;48.112;8.616;2022-09-09T08:08:51;2.97;;;2.00;;
27744;SDS011;61387;48.112;8.616;2022-09-09T08:11:19;4.20;;;1.77;;
27744;SDS011;61387;48.112;8.616;2022-09-09T08:13:45;4.43;;;2.10;;
27744;SDS011;61387;48.112;8.616;2022-09-09T08:16:13;5.70;;;2.07;;
27744;SDS011;61387;48.112;8.616;2022-09-09T08:18:41;1.87;;;1.10;;
27744;SDS011;61387;48.112;8.616;2022-09-09T08:21:11;3.07;;;1.33;;
27744;SDS011;61387;48.112;8.616;2022-09-09T08:23:42;4.60;;;1.30;;
27744;SDS011;61387;48.112;8.616;2022-09-09T08:26:09;4.10;;;1.40;;
27744;SDS011;61387;48.112;8.616;2022-09-09T08:28:40;2.73;;;1.17;;
27744;SDS011;61387;48.112;8.616;2022-09-09T08:33:36;5.17;;;1.27;;
27744;SDS011;61387;48.112;8.616;2022-09-09T08:36:03;5.50;;;1.80;;
27744;SDS011;61387;48.112;8.616;2022-09-09T08:38:29;2.90;;;1.03;;
27744;SDS011;61387;48.112;8.616;2022-09-09T08:40:57;4.40;;;1.30;;
27744;SDS011;61387;48.112;8.616;2022-09-09T08:43:31;3.03;;;1.17;;
27744;SDS011;61387;48.112;8.616;2022-09-09T08:46:04;3.13;;;1.27;;
27744;SDS011;61387;48.112;8.616;2022-09-09T08:49:11;3.33;;;1.33;;
27744;SDS011;61387;48.112;8.616;2022-09-09T08:51:46;3.30;;;1.30;;
27744;SDS011;61387;48.112;8.616;2022-09-09T08:54:13;2.20;;;1.07;;
27744;SDS011;61387;48.112;8.616;2022-09-09T08:56:39;4.60;;;1.80;;
27744;SDS011;61387;48.112;8.616;2022-09-09T08:59:05;5.40;;;1.40;;
27744;SDS011;61387;48.112;8.616;2022-09-09T09:01:50;5.40;;;1.20;;
27744;SDS011;61387;48.112;8.616;2022-09-09T09:07:48;5.67;;;1.67;;
27744;SDS011;61387;48.112;8.616;2022-09-09T09:13:12;8.10;;;1.70;;
27744;SDS011;61387;48.112;8.616;2022-09-09T09:15:54;4.47;;;1.10;;
27744;SDS011;61387;48.112;8.616;2022-09-09T09:18:23;3.23;;;1.10;;
27744;SDS011;61387;48.112;8.616;2022-09-09T09:23:21;4.07;;;1.10;;
27744;SDS011;61387;48.112;8.616;2022-09-09T09:25:49;5.57;;;1.80;;
27744;SDS011;61387;48.112;8.616;2022-09-09T09:28:29;2.93;;;1.23;;
27744;SDS011;61387;48.112;8.616;2022-09-09T09:31:00;5.50;;;1.33;;
27744;SDS011;61387;48.112;8.616;2022-09-09T09:36:09;4.13;;;1.30;;
27744;SDS011;61387;48.112;8.616;2022-09-09T09:38:35;6.30;;;1.70;;
27744;SDS011;61387;48.112;8.616;2022-09-09T09:41:02;5.90;;;1.17;;
27744;SDS011;61387;48.112;8.616;2022-09-09T09:43:32;5.23;;;1.23;;
27744;SDS011;61387;48.112;8.616;2022-09-09T09:45:59;4.10;;;1.13;;
27744;SDS011;61387;48.112;8.616;2022-09-09T09:48:26;2.93;;;1.17;;
27744;SDS011;61387;48.112;8.616;2022-09-09T09:53:23;4.53;;;1.07;;
27744;SDS011;61387;48.112;8.616;2022-09-09T09:55:58;3.13;;;0.90;;
27744;SDS011;61387;48.112;8.616;2022-09-09T10:01:18;5.57;;;1.10;;
27744;SDS011;61387;48.112;8.616;2022-09-09T10:06:39;4.43;;;0.77;;
27744;SDS011;61387;48.112;8.616;2022-09-09T10:09:22;3.77;;;1.10;;
27744;SDS011;61387;48.112;8.616;2022-09-09T10:11:55;2.23;;;0.97;;
27744;SDS011;61387;48.112;8.616;2022-09-09T10:22:34;2.47;;;0.70;;
27744;SDS011;61387;48.112;8.616;2022-09-09T10:30:23;2.33;;;0.80;;
27744;SDS011;61387;48.112;8.616;2022-09-09T10:33:12;3.12;;;0.85;;
27744;SDS011;61387;48.112;8.616;2022-09-09T10:35:52;1.93;;;0.73;;
27744;SDS011;61387;48.112;8.616;2022-09-09T10:49:40;4.00;;;0.93;;
27744;SDS011;61387;48.112;8.616;2022-09-09T10:57:31;3.60;;;0.90;;
27744;SDS011;61387;48.112;8.616;2022-09-09T11:00:05;2.70;;;0.60;;
27744;SDS011;61387;48.112;8.616;2022-09-09T11:02:39;1.95;;;0.55;;
27744;SDS011;61387;48.112;8.616;2022-09-09T11:05:14;2.25;;;0.60;;
27744;SDS011;61387;48.112;8.616;2022-09-09T11:07:51;4.47;;;0.80;;
27744;SDS011;61387;48.112;8.616;2022-09-09T11:13:03;1.23;;;0.50;;
27744;SDS011;61387;48.112;8.616;2022-09-09T11:15:45;2.83;;;0.70;;
27744;SDS011;61387;48.112;8.616;2022-09-09T11:18:20;1.15;;;0.47;;
27744;SDS011;61387;48.112;8.616;2022-09-09T11:20:49;2.15;;;0.80;;
27744;SDS011;61387;48.112;8.616;2022-09-09T11:23:22;1.87;;;0.37;;
27744;SDS011;61387;48.112;8.616;2022-09-09T11:25:58;5.43;;;1.10;;
27744;SDS011;61387;48.112;8.616;2022-09-09T11:28:34;3.50;;;0.70;;
27744;SDS011;61387;48.112;8.616;2022-09-09T11:34:01;2.40;;;0.87;;
27744;SDS011;61387;48.112;8.616;2022-09-09T11:42:28;4.00;;;0.65;;
27744;SDS011;61387;48.112;8.616;2022-09-09T11:44:54;3.30;;;0.67;;
27744;SDS011;61387;48.112;8.616;2022-09-09T11:47:26;3.70;;;0.73;;
27744;SDS011;61387;48.112;8.616;2022-09-09T11:49:55;2.33;;;0.60;;
27744;SDS011;61387;48.112;8.616;2022-09-09T11:53:02;1.85;;;0.62;;
27744;SDS011;61387;48.112;8.616;2022-09-09T11:55:43;3.20;;;0.60;;
27744;SDS011;61387;48.112;8.616;2022-09-09T12:00:37;1.07;;;0.50;;
27744;SDS011;61387;48.112;8.616;2022-09-09T12:06:08;3.22;;;0.62;;
27744;SDS011;61387;48.112;8.616;2022-09-09T12:08:41;1.23;;;0.52;;
27744;SDS011;61387;48.112;8.616;2022-09-09T12:11:08;4.68;;;0.70;;
27744;SDS011;61387;48.112;8.616;2022-09-09T12:13:34;4.37;;;0.90;;
27744;SDS011;61387;48.112;8.616;2022-09-09T12:16:01;3.35;;;0.90;;
27744;SDS011;61387;48.112;8.616;2022-09-09T12:18:34;6.97;;;0.98;;
27744;SDS011;61387;48.112;8.616;2022-09-09T12:23:52;4.45;;;0.80;;
27744;SDS011;61387;48.112;8.616;2022-09-09T12:34:11;3.23;;;0.70;;
27744;SDS011;61387;48.112;8.616;2022-09-09T12:36:57;3.97;;;1.10;;
27744;SDS011;61387;48.112;8.616;2022-09-09T12:39:29;2.70;;;0.63;;
27744;SDS011;61387;48.112;8.616;2022-09-09T12:42:16;9.93;;;1.47;;
27744;SDS011;61387;48.112;8.616;2022-09-09T12:44:52;4.72;;;0.90;;
27744;SDS011;61387;48.112;8.616;2022-09-09T12:47:20;2.72;;;0.60;;
27744;SDS011;61387;48.112;8.616;2022-09-09T12:49:50;3.55;;;0.70;;
27744;SDS011;61387;48.112;8.616;2022-09-09T12:52:30;3.20;;;0.80;;
27744;SDS011;61387;48.112;8.616;2022-09-09T12:54:59;2.60;;;0.70;;
27744;SDS011;61387;48.112;8.616;2022-09-09T12:57:29;4.87;;;0.95;;
27744;SDS011;61387;48.112;8.616;2022-09-09T13:00:33;1.75;;;0.60;;
27744;SDS011;61387;48.112;8.616;2022-09-09T13:07:47;2.23;;;0.67;;
27744;SDS011;61387;48.112;8.616;2022-09-09T13:10:14;4.87;;;1.07;;
27744;SDS011;61387;48.112;8.616;2022-09-09T13:12:46;2.08;;;0.75;;
27744;SDS011;61387;48.112;8.616;2022-09-09T13:15:16;3.33;;;1.00;;
27744;SDS011;61387;48.112;8.616;2022-09-09T13:17:49;2.75;;;0.85;;
27744;SDS011;61387;48.112;8.616;2022-09-09T13:20:18;3.87;;;0.70;;
27744;SDS011;61387;48.112;8.616;2022-09-09T13:22:47;2.67;;;0.90;;
27744;SDS011;61387;48.112;8.616;2022-09-09T13:25:26;3.03;;;0.70;;
27744;SDS011;61387;48.112;8.616;2022-09-09T13:27:58;2.70;;;0.68;;
27744;SDS011;61387;48.112;8.616;2022-09-09T13:30:27;4.55;;;1.12;;
27744;SDS011;61387;48.112;8.616;2022-09-09T13:35:59;5.07;;;1.00;;
27744;SDS011;61387;48.112;8.616;2022-09-09T13:38:27;6.53;;;1.27;;
27744;SDS011;61387;48.112;8.616;2022-09-09T13:40:58;2.78;;;0.60;;
27744;SDS011;61387;48.112;8.616;2022-09-09T13:43:28;4.22;;;1.00;;
27744;SDS011;61387;48.112;8.616;2022-09-09T13:45:57;4.50;;;1.10;;
27744;SDS011;61387;48.112;8.616;2022-09-09T13:48:25;4.55;;;0.50;;
27744;SDS011;61387;48.112;8.616;2022-09-09T13:51:01;6.60;;;0.95;;
27744;SDS011;61387;48.112;8.616;2022-09-09T13:53:30;2.95;;;0.75;;
27744;SDS011;61387;48.112;8.616;2022-09-09T13:55:56;2.97;;;0.93;;
27744;SDS011;61387;48.112;8.616;2022-09-09T13:58:23;5.10;;;1.10;;
27744;SDS011;61387;48.112;8.616;2022-09-09T14:00:50;3.78;;;1.12;;
27744;SDS011;61387;48.112;8.616;2022-09-09T14:03:17;4.30;;;0.62;;
27744;SDS011;61387;48.112;8.616;2022-09-09T14:05:43;3.75;;;1.00;;
27744;SDS011;61387;48.112;8.616;2022-09-09T14:08:12;2.95;;;0.80;;
27744;SDS011;61387;48.112;8.616;2022-09-09T14:10:46;3.67;;;0.82;;
27744;SDS011;61387;48.112;8.616;2022-09-09T14:13:12;4.30;;;0.97;;
27744;SDS011;61387;48.112;8.616;2022-09-09T14:15:39;6.90;;;1.12;;
27744;SDS011;61387;48.112;8.616;2022-09-09T14:18:05;4.00;;;0.80;;
27744;SDS011;61387;48.112;8.616;2022-09-09T14:20:31;5.55;;;0.77;;
27744;SDS011;61387;48.112;8.616;2022-09-09T14:22:57;1.80;;;0.60;;
27744;SDS011;61387;48.112;8.616;2022-09-09T14:25:23;2.92;;;0.80;;
27744;SDS011;61387;48.112;8.616;2022-09-09T14:27:49;2.50;;;0.60;;
27744;SDS011;61387;48.112;8.616;2022-09-09T14:30:16;1.25;;;0.37;;
27744;SDS011;61387;48.112;8.616;2022-09-09T14:32:42;1.73;;;0.50;;
27744;SDS011;61387;48.112;8.616;2022-09-09T14:35:08;1.93;;;0.50;;
27744;SDS011;61387;48.112;8.616;2022-09-09T14:37:34;4.37;;;0.40;;
27744;SDS011;61387;48.112;8.616;2022-09-09T14:40:00;2.27;;;0.40;;
27744;SDS011;61387;48.112;8.616;2022-09-09T14:42:26;1.97;;;0.67;;
27744;SDS011;61387;48.112;8.616;2022-09-09T14:44:53;2.83;;;0.63;;
27744;SDS011;61387;48.112;8.616;2022-09-09T14:47:19;4.57;;;0.73;;
27744;SDS011;61387;48.112;8.616;2022-09-09T14:49:45;1.83;;;0.40;;
27744;SDS011;61387;48.112;8.616;2022-09-09T14:52:18;2.93;;;0.50;;
27744;SDS011;61387;48.112;8.616;2022-09-09T14:54:44;3.17;;;0.67;;
27744;SDS011;61387;48.112;8.616;2022-09-09T14:57:10;2.80;;;0.57;;
27744;SDS011;61387;48.112;8.616;2022-09-09T14:59:35;2.37;;;0.93;;
27744;SDS011;61387;48.112;8.616;2022-09-09T15:02:01;2.13;;;0.50;;
27744;SDS011;61387;48.112;8.616;2022-09-09T15:04:29;3.63;;;0.60;;
27744;SDS011;61387;48.112;8.616;2022-09-09T15:06:55;2.07;;;0.50;;
27744;SDS011;61387;48.112;8.616;2022-09-09T15:09:21;1.37;;;0.50;;
27744;SDS011;61387;48.112;8.616;2022-09-09T15:11:47;5.50;;;0.67;;
27744;SDS011;61387;48.112;8.616;2022-09-09T15:14:13;3.97;;;1.30;;
27744;SDS011;61387;48.112;8.616;2022-09-09T15:16:39;2.17;;;0.77;;
27744;SDS011;61387;48.112;8.616;2022-09-09T15:19:05;1.73;;;0.30;;
27744;SDS011;61387;48.112;8.616;2022-09-09T15:21:32;3.43;;;0.60;;
27744;SDS011;61387;48.112;8.616;2022-09-09T15:23:59;3.33;;;0.60;;
27744;SDS011;61387;48.112;8.616;2022-09-09T15:26:26;3.53;;;0.50;;
27744;SDS011;61387;48.112;8.616;2022-09-09T15:28:52;2.17;;;0.60;;
27744;SDS011;61387;48.112;8.616;2022-09-09T15:31:23;1.33;;;0.68;;
27744;SDS011;61387;48.112;8.616;2022-09-09T15:33:50;3.15;;;0.60;;
27744;SDS011;61387;48.112;8.616;2022-09-09T15:36:21;2.25;;;0.75;;
27744;SDS011;61387;48.112;8.616;2022-09-09T15:38:48;2.83;;;1.05;;
27744;SDS011;61387;48.112;8.616;2022-09-09T15:41:15;0.90;;;0.47;;
27744;SDS011;61387;48.112;8.616;2022-09-09T15:43:44;2.77;;;0.53;;
27744;SDS011;61387;48.112;8.616;2022-09-09T15:48:55;3.33;;;0.50;;
27744;SDS011;61387;48.112;8.616;2022-09-09T15:51:29;2.00;;;0.50;;
27744;SDS011;61387;48.112;8.616;2022-09-09T15:53:55;2.47;;;0.50;;
27744;SDS011;61387;48.112;8.616;2022-09-09T15:56:22;4.33;;;0.93;;
27744;SDS011;61387;48.112;8.616;2022-09-09T15:58:49;3.47;;;0.80;;
27744;SDS011;61387;48.112;8.616;2022-09-09T16:01:16;4.67;;;0.93;;
27744;SDS011;61387;48.112;8.616;2022-09-09T16:03:43;2.37;;;0.57;;
27744;SDS011;61387;48.112;8.616;2022-09-09T16:06:15;3.87;;;0.80;;
27744;SDS011;61387;48.112;8.616;2022-09-09T16:08:43;2.93;;;0.77;;
27744;SDS011;61387;48.112;8.616;2022-09-09T16:11:10;5.07;;;1.00;;
27744;SDS011;61387;48.112;8.616;2022-09-09T16:13:41;3.37;;;0.80;;
27744;SDS011;61387;48.112;8.616;2022-09-09T16:16:09;1.73;;;0.50;;
27744;SDS011;61387;48.112;8.616;2022-09-09T16:18:37;4.10;;;0.80;;
27744;SDS011;61387;48.112;8.616;2022-09-09T16:21:05;3.83;;;0.93;;
27744;SDS011;61387;48.112;8.616;2022-09-09T16:23:33;4.10;;;0.60;;
27744;SDS011;61387;48.112;8.616;2022-09-09T16:25:59;2.87;;;0.70;;
27744;SDS011;61387;48.112;8.616;2022-09-09T16:28:25;0.90;;;0.57;;
27744;SDS011;61387;48.112;8.616;2022-09-09T16:30:51;3.00;;;0.67;;
27744;SDS011;61387;48.112;8.616;2022-09-09T16:33:17;4.73;;;0.70;;
27744;SDS011;61387;48.112;8.616;2022-09-09T16:35:43;3.63;;;0.70;;
27744;SDS011;61387;48.112;8.616;2022-09-09T16:38:09;2.53;;;0.47;;
27744;SDS011;61387;48.112;8.616;2022-09-09T16:40:36;2.13;;;0.60;;
27744;SDS011;61387;48.112;8.616;2022-09-09T16:43:02;2.23;;;0.63;;
27744;SDS011;61387;48.112;8.616;2022-09-09T16:45:28;3.03;;;0.70;;
27744;SDS011;61387;48.112;8.616;2022-09-09T16:47:55;2.77;;;0.70;;
27744;SDS011;61387;48.112;8.616;2022-09-09T16:50:20;4.17;;;0.93;;
27744;SDS011;61387;48.112;8.616;2022-09-09T16:52:47;2.93;;;0.70;;
27744;SDS011;61387;48.112;8.616;2022-09-09T16:55:12;3.33;;;1.00;;
27744;SDS011;61387;48.112;8.616;2022-09-09T16:57:39;2.83;;;0.90;;
27744;SDS011;61387;48.112;8.616;2022-09-09T17:00:06;1.87;;;0.97;;
27744;SDS011;61387;48.112;8.616;2022-09-09T17:02:33;2.97;;;0.83;;
27744;SDS011;61387;48.112;8.616;2022-09-09T17:04:59;5.40;;;1.00;;
27744;SDS011;61387;48.112;8.616;2022-09-09T17:07:25;2.50;;;0.90;;
27744;SDS011;61387;48.112;8.616;2022-09-09T17:09:51;3.73;;;1.20;;
27744;SDS011;61387;48.112;8.616;2022-09-09T17:12:18;4.30;;;0.90;;
27744;SDS011;61387;48.112;8.616;2022-09-09T17:14:43;3.37;;;1.30;;
27744;SDS011;61387;48.112;8.616;2022-09-09T17:17:10;4.80;;;1.40;;